Pinecliffe, Colorado
Current Conditions -  °F | °C
As of 3:56 PM on Thursday 23 Oct 2014 (Local Time) from KBDU Reporting Station
Clear Clear  
Wind Chill: 73°   Ceiling: Unl
Heat Index: 73°   Visibility: 10mi
Dew Point: 28°   Wind: 8mph
Humidity: 19%   Direction: 250°WSW
Pressure: 30.08"   Gusts: 18mph
Location:  39.93°N, 105.43°W
Report Text: KBDU 232156Z AUTO 25007G16KT 10SM CLR 23/M02 A3008 RMK AO2
Loading
Personal Weather Stations






























Interactive Weather Map
Tropical Storm Tracking
New forecast layout! Learn more

10-Day Weather Forecast

Advertisements
Track Severe Weather on mobile